Time;durP1;ratioP1;P1;durP2;ratioP2;P2;SDS_P1;SDS_P2;PMS_P1;PMS_P2;Temp;Humidity;BMP_temperature;BMP_pressure;BME280_temperature;BME280_humidity;BME280_pressure;Samples;Min_cycle;Max_cycle;Signal;HPM_P1;HPM_P2
2023/12/16 00:02:24;;;;;;;;;;;;;;;;;;;;;
2023/12/16 00:05:20;;;;;;;;;7.50;6.25;;;;;10.45;84.43;101114.31;146605;578;47013;-65
2023/12/16 00:08:23;;;;;;;;;5.50;4.00;;;;;10.51;84.24;101109.47;146603;692;47016;-63
2023/12/16 00:11:22;;;;;;;;;8.00;5.75;;;;;10.57;84.43;101120.22;146605;622;46034;-64
2023/12/16 00:14:37;;;;;;;;;7.50;5.25;;;;;10.57;83.82;101112.44;146602;657;47014;-64
2023/12/16 00:17:30;;;;;;;;;5.25;5.00;;;;;10.54;84.03;101120.03;146609;629;46010;-64
2023/12/16 00:20:23;;;;;;;;;6.00;5.00;;;;;10.53;84.47;101114.75;146603;714;47012;-65
2023/12/16 00:23:29;;;;;;;;;8.50;6.50;;;;;10.57;84.53;101116.72;146600;639;47010;-65
2023/12/16 00:26:27;;;;;;;;;15.50;13.25;;;;;10.60;84.90;101124.69;146603;602;46914;-65
2023/12/16 00:29:30;;;;;;;;;19.75;17.00;;;;;10.65;85.03;101123.22;146604;573;46020;-64
2023/12/16 00:32:24;;;;;;;;;17.50;14.50;;;;;10.70;84.82;101132.19;146603;592;46014;-64
2023/12/16 00:35:22;;;;;;;;;15.00;12.75;;;;;10.72;85.04;101137.47;146605;698;46010;-68
2023/12/16 00:38:27;;;;;;;;;14.75;13.00;;;;;6.53;83.77;100396.50;146603;565;47016;-68
2023/12/16 00:41:22;;;;;;;;;14.75;12.00;;;;;10.77;84.58;101133.41;146607;593;46015;-66
2023/12/16 00:44:31;;;;;;;;;16.25;12.75;;;;;10.78;84.72;101132.63;146604;618;46016;-67
2023/12/16 00:47:23;;;;;;;;;14.75;13.00;;;;;10.75;84.72;101150.62;146605;583;46020;-66
2023/12/16 00:50:26;;;;;;;;;19.25;18.75;;;;;10.73;84.03;101147.03;146602;571;47014;-65
2023/12/16 00:53:26;;;;;;;;;16.00;14.25;;;;;10.76;84.46;101139.41;146603;575;46052;-65
2023/12/16 00:56:41;;;;;;;;;18.25;16.75;;;;;10.78;84.25;101132.63;146601;595;46013;-65
2023/12/16 00:59:43;;;;;;;;;13.75;13.25;;;;;10.80;84.57;101129.28;146608;591;45029;-64
2023/12/16 01:02:43;;;;;;;;;12.00;10.75;;;;;10.78;84.90;101127.44;146601;630;47016;-65
2023/12/16 01:05:43;;;;;;;;;14.25;11.00;;;;;10.76;85.50;101124.75;146603;669;47021;-64
2023/12/16 01:08:42;;;;;;;;;13.25;12.00;;;;;10.77;85.73;101141.19;146605;636;47012;-64
2023/12/16 01:11:52;;;;;;;;;20.50;18.00;;;;;6.85;85.08;100447.47;146624;603;46010;-65
2023/12/16 01:14:59;;;;;;;;;14.00;12.25;;;;;10.79;85.76;101135.28;146621;608;45916;-63
2023/12/16 01:17:54;;;;;;;;;9.25;7.50;;;;;10.80;85.72;101125.81;146627;565;46015;-63
2023/12/16 01:20:55;;;;;;;;;8.50;8.00;;;;;10.79;85.38;101139.59;146623;569;46016;-65
2023/12/16 01:23:50;;;;;;;;;8.75;7.75;;;;;10.78;85.29;101153.38;146626;563;45020;-64
2023/12/16 01:26:59;;;;;;;;;15.00;15.00;;;;;10.80;87.30;101157.81;146621;569;46038;-68
2023/12/16 01:30:05;;;;;;;;;1.00;1.00;;;;;10.67;86.76;101157.03;146625;610;45020;-66
2023/12/16 01:33:04;;;;;;;;;1.50;0.75;;;;;10.51;85.90;101153.56;146615;564;46012;-66
2023/12/16 01:35:58;;;;;;;;;1.00;0.00;;;;;10.40;85.79;101141.66;146626;692;46014;-67
2023/12/16 01:39:08;;;;;;;;;0.50;0.50;;;;;10.34;84.98;101147.41;146624;614;45916;-68
2023/12/16 01:42:11;;;;;;;;;4.00;4.00;;;;;10.36;85.16;101157.84;146626;571;45021;-67
2023/12/16 01:45:09;;;;;;;;;10.75;9.75;;;;;10.38;86.61;101156.25;146628;620;45012;-69
2023/12/16 01:48:03;;;;;;;;;1.50;0.50;;;;;10.41;87.28;101151.25;146626;569;45021;-68
2023/12/16 01:51:18;;;;;;;;;7.25;6.25;;;;;10.41;88.74;101135.69;146623;603;46016;-68
2023/12/16 01:54:44;;;;;;;;;;;;;;;;;;;;;
2023/12/16 01:58:01;;;;;;;;;0.00;0.00;;;;;10.11;87.34;101132.16;146629;585;45016;-63
2023/12/16 02:01:07;;;;;;;;;0.00;0.00;;;;;9.89;87.67;101122.19;146628;576;45020;-66
2023/12/16 02:04:06;;;;;;;;;0.00;0.00;;;;;9.76;87.50;101123.16;146629;622;45012;-66
2023/12/16 02:07:16;;;;;;;;;0.00;0.00;;;;;9.61;87.86;101143.81;146627;571;45014;-64
2023/12/16 02:10:23;;;;;;;;;2.00;0.00;;;;;9.50;89.07;101144.84;146627;571;45016;-64
2023/12/16 02:13:23;;;;;;;;;0.00;0.00;;;;;9.41;89.54;101160.72;146626;673;45020;-65
2023/12/16 02:16:18;;;;;;;;;0.50;0.00;;;;;9.34;89.92;101150.75;146629;677;45012;-65
2023/12/16 02:19:41;;;;;;;;;0.00;0.00;;;;;6.29;89.14;100622.44;146628;580;46010;-64
2023/12/16 02:22:37;;;;;;;;;0.00;0.00;;;;;9.24;90.15;101161.34;146629;570;45023;-65
2023/12/16 02:25:42;;;;;;;;;0.00;0.00;;;;;9.26;89.16;101180.44;146629;582;45021;-66
2023/12/16 02:28:36;;;;;;;;;0.25;0.00;;;;;9.23;90.64;101186.31;146626;734;45012;-65
2023/12/16 02:31:40;;;;;;;;;0.00;0.00;;;;;9.25;88.90;101207.09;146622;644;46036;-65
2023/12/16 02:34:50;;;;;;;;;0.75;0.25;;;;;9.23;88.24;101212.19;146626;696;46010;-64
2023/12/16 02:37:50;;;;;;;;;0.00;0.00;;;;;9.20;89.33;101214.59;146630;587;45020;-66
2023/12/16 02:40:57;;;;;;;;;;;;;;;;;;;;;
2023/12/16 02:43:52;;;;;;;;;0.00;0.00;;;;;9.13;88.62;101230.53;146618;573;47010;-65
2023/12/16 02:46:52;;;;;;;;;0.00;0.00;;;;;9.14;87.76;101223.66;146627;579;46012;-65
2023/12/16 02:50:07;;;;;;;;;0.50;0.00;;;;;6.80;88.13;100806.19;146628;632;46010;-65
2023/12/16 02:53:14;;;;;;;;;0.00;0.00;;;;;9.07;88.32;101205.94;146628;688;46012;-66
2023/12/16 02:56:12;;;;;;;;;0.00;0.00;;;;;9.06;87.97;101193.78;146627;569;45020;-66
2023/12/16 02:59:08;;;;;;;;;0.25;0.00;;;;;9.01;89.01;101201.25;146626;689;46016;-64
2023/12/16 03:02:09;;;;;;;;;0.50;0.50;;;;;8.98;89.79;101201.06;146626;585;46014;-65
2023/12/16 03:05:02;;;;;;;;;0.00;0.00;;;;;8.89;90.80;101203.06;146630;634;45012;-65
2023/12/16 03:08:08;;;;;;;;;0.00;0.00;;;;;8.79;91.05;101199.84;146623;564;45918;-64
2023/12/16 03:11:09;;;;;;;;;0.00;0.00;;;;;8.71;90.94;101198.44;146606;741;46016;-65
2023/12/16 03:14:13;;;;;;;;;1.00;0.00;;;;;8.71;91.28;101195.84;146604;605;47020;-64
2023/12/16 03:17:18;;;;;;;;;1.00;0.75;;;;;8.71;90.64;101176.88;146599;723;47017;-65
2023/12/16 03:20:23;;;;;;;;;0.00;0.00;;;;;8.65;91.47;101179.94;146607;563;46010;-64
2023/12/16 03:23:17;;;;;;;;;0.00;0.00;;;;;8.68;90.87;101179.25;146600;564;46914;-63
2023/12/16 03:26:25;;;;;;;;;0.00;0.00;;;;;5.74;89.49;100662.44;146607;582;47010;-64
2023/12/16 03:29:19;;;;;;;;;0.00;0.00;;;;;8.74;88.98;101179.66;146603;609;46034;-64
2023/12/16 03:32:26;;;;;;;;;0.00;0.00;;;;;8.75;89.85;101182.37;146605;570;46021;-64
2023/12/16 03:35:46;;;;;;;;;0.75;0.00;;;;;8.72;90.54;101142.47;146605;729;46022;-65
2023/12/16 03:38:41;;;;;;;;;1.00;0.00;;;;;8.70;89.81;101177.69;146604;565;47010;-64
2023/12/16 03:41:40;;;;;;;;;0.00;0.00;;;;;8.69;89.90;101184.53;146602;583;46012;-64
2023/12/16 03:44:35;;;;;;;;;0.25;0.00;;;;;8.69;89.68;101158.69;146606;585;47011;-65
2023/12/16 03:47:42;;;;;;;;;0.50;0.00;;;;;4.60;87.40;100441.19;146606;634;46014;-66
2023/12/16 03:51:00;;;;;;;;;0.00;0.00;;;;;8.84;86.50;101204.44;146607;629;45922;-66
2023/12/16 03:54:11;;;;;;;;;;;;;;;;;;;;;
2023/12/16 03:57:07;;;;;;;;;0.00;0.00;;;;;8.90;86.96;101177.28;146608;575;46020;-65
2023/12/16 04:00:05;;;;;;;;;0.00;0.00;;;;;8.91;86.64;101176.50;146603;636;46016;-65
2023/12/16 04:03:07;;;;;;;;;0.00;0.00;;;;;8.93;85.85;101197.28;146602;564;46020;-66
2023/12/16 04:06:20;;;;;;;;;0.00;0.00;;;;;9.04;84.96;101205.75;146603;586;47012;-66
2023/12/16 04:09:12;;;;;;;;;0.00;0.00;;;;;9.13;83.06;101177.88;146609;673;46020;-65
2023/12/16 04:12:09;;;;;;;;;0.00;0.00;;;;;9.25;82.44;101192.50;146600;652;46028;-66
2023/12/16 04:15:12;;;;;;;;;0.00;0.00;;;;;9.40;81.88;101212.38;146607;650;46010;-64
2023/12/16 04:18:07;;;;;;;;;1.00;1.00;;;;;9.48;82.31;101209.47;146605;572;46914;-66
2023/12/16 04:21:01;;;;;;;;;0.00;0.00;;;;;9.54;81.03;101224.50;146604;657;46020;-67
2023/12/16 04:24:25;;;;;;;;;0.75;0.00;;;;;9.63;81.21;101231.97;146604;578;47012;-63
2023/12/16 04:27:24;;;;;;;;;0.00;0.00;;;;;9.68;81.05;101241.78;146610;634;46010;-64
2023/12/16 04:30:25;;;;;;;;;3.25;3.00;;;;;9.78;81.74;101244.94;146604;684;46017;-64
2023/12/16 04:33:19;;;;;;;;;17.75;14.25;;;;;9.85;81.80;101260.09;146602;579;47014;-65
2023/12/16 04:36:37;;;;;;;;;1.00;1.00;;;;;6.41;81.63;100676.47;146600;632;46017;-64
2023/12/16 04:39:42;;;;;;;;;1.75;0.00;;;;;9.89;81.28;101285.38;146608;634;46030;-64
2023/12/16 04:42:47;;;;;;;;;3.25;1.50;;;;;9.92;81.90;101293.34;146604;692;47012;-64
2023/12/16 04:45:47;;;;;;;;;4.50;4.25;;;;;9.96;81.93;101287.56;146602;576;46021;-64
2023/12/16 04:49:01;;;;;;;;;0.50;0.50;;;;;9.98;81.52;101285.06;146600;578;46016;-64
2023/12/16 04:52:14;;;;;;;;;1.75;1.75;;;;;9.99;80.64;101292.03;146607;583;46020;-64
2023/12/16 04:55:22;;;;;;;;;5.00;3.50;;;;;9.97;80.02;101307.50;146605;736;46012;-64
2023/12/16 04:58:22;;;;;;;;;2.50;2.00;;;;;9.95;79.95;101293.53;146605;726;46020;-64
2023/12/16 05:01:21;;;;;;;;;4.00;2.50;;;;;9.90;79.70;101289.75;146605;611;46031;-65
2023/12/16 05:04:29;;;;;;;;;0.00;0.00;;;;;9.89;79.46;101300.94;146605;677;46020;-65
2023/12/16 05:07:30;;;;;;;;;0.25;0.00;;;;;9.85;79.33;101286.91;146602;574;47014;-66
2023/12/16 05:10:30;;;;;;;;;0.00;0.00;;;;;9.84;79.91;101287.66;146605;576;46014;-65
2023/12/16 05:13:25;;;;;;;;;0.00;0.00;;;;;9.70;80.06;101275.56;146608;600;46016;-67
2023/12/16 05:16:41;;;;;;;;;2.00;0.25;;;;;9.64;79.75;101304.53;146606;582;46014;-66
2023/12/16 05:19:33;;;;;;;;;0.50;0.50;;;;;7.81;80.96;100994.38;146604;569;47012;-69
2023/12/16 05:22:40;;;;;;;;;0.50;0.50;;;;;9.53;80.88;101305.53;146605;597;47021;-68
2023/12/16 05:25:40;;;;;;;;;0.00;0.00;;;;;9.45;81.16;101315.41;146604;587;46014;-68
2023/12/16 05:28:43;;;;;;;;;2.00;2.00;;;;;9.45;80.66;101336.13;146604;630;47039;-68
2023/12/16 05:31:51;;;;;;;;;2.75;1.00;;;;;9.47;80.21;101369.88;146602;599;46016;-67
2023/12/16 05:35:06;;;;;;;;;1.00;1.00;;;;;9.50;80.31;101354.53;146606;658;46010;-67
2023/12/16 05:38:06;;;;;;;;;3.75;3.25;;;;;9.57;80.41;101366.19;146607;608;46016;-66
2023/12/16 05:41:10;;;;;;;;;2.00;1.50;;;;;9.62;79.81;101370.84;146603;579;46020;-67
2023/12/16 05:44:34;;;;;;;;;3.25;3.00;;;;;9.62;79.44;101385.50;146602;613;46013;-65
2023/12/16 05:47:29;;;;;;;;;4.25;3.25;;;;;9.61;79.48;101369.06;146604;564;46020;-64
2023/12/16 05:50:27;;;;;;;;;0.50;0.50;;;;;9.57;80.65;101371.38;146606;605;47012;-65
2023/12/16 05:53:27;;;;;;;;;0.75;0.75;;;;;9.46;81.27;101379.31;146608;589;46010;-66
2023/12/16 05:56:23;;;;;;;;;0.67;0.67;;;;;9.46;81.25;101375.84;146604;685;46016;-67
2023/12/16 05:59:24;;;;;;;;;0.75;0.75;;;;;9.38;81.95;101380.53;146606;682;46028;-65
2023/12/16 06:02:38;;;;;;;;;1.00;0.50;;;;;9.30;82.54;101385.97;146601;653;47014;-65
2023/12/16 06:05:33;;;;;;;;;2.25;1.75;;;;;9.23;83.23;101413.13;146603;685;47010;-64
2023/12/16 06:08:34;;;;;;;;;2.50;0.75;;;;;9.15;83.68;101411.72;146602;564;47914;-64
2023/12/16 06:11:31;;;;;;;;;3.75;3.00;;;;;9.09;84.36;101435.47;146600;564;47020;-63
2023/12/16 06:14:30;;;;;;;;;2.50;0.75;;;;;9.01;84.08;101423.72;146602;624;46016;-65
2023/12/16 06:17:30;;;;;;;;;0.25;0.25;;;;;8.97;84.01;101413.94;146608;582;46020;-66
2023/12/16 06:20:42;;;;;;;;;1.25;0.50;;;;;8.97;83.50;101438.13;146601;569;46017;-64
2023/12/16 06:23:46;;;;;;;;;2.00;2.00;;;;;8.97;83.97;101443.31;146609;572;46028;-66
2023/12/16 06:26:47;;;;;;;;;1.00;1.00;;;;;8.95;83.98;101446.56;146604;579;46016;-64
2023/12/16 06:29:50;;;;;;;;;1.00;1.00;;;;;8.91;84.26;101471.34;146607;695;47021;-67
2023/12/16 06:32:53;;;;;;;;;1.75;1.25;;;;;8.89;84.18;101454.81;146604;586;46035;-65
2023/12/16 06:35:54;;;;;;;;;0.50;0.50;;;;;8.92;84.09;101454.13;146607;603;46011;-67
2023/12/16 06:38:57;;;;;;;;;1.00;1.00;;;;;8.90;84.78;101468.63;146606;617;46016;-69
2023/12/16 06:41:55;;;;;;;;;2.00;2.00;;;;;8.88;85.33;101465.03;146604;597;46010;-69
2023/12/16 06:44:50;;;;;;;;;3.25;3.00;;;;;8.85;85.65;101478.66;146602;657;46014;-68
2023/12/16 06:47:42;;;;;;;;;2.00;2.00;;;;;8.84;85.46;101470.78;146607;634;46010;-69
2023/12/16 06:50:37;;;;;;;;;5.00;2.00;;;;;8.84;85.25;101484.59;146607;619;47015;-66
2023/12/16 06:53:36;;;;;;;;;2.00;1.00;;;;;8.82;85.62;101481.03;146605;570;46020;-67
2023/12/16 06:56:37;;;;;;;;;2.75;2.75;;;;;8.67;86.36;101454.09;146607;584;46016;-69
2023/12/16 06:59:49;;;;;;;;;2.00;1.75;;;;;4.61;85.48;100745.09;146606;579;47021;-68
2023/12/16 07:02:52;;;;;;;;;1.00;1.00;;;;;8.78;85.46;101481.59;146603;660;47012;-67
2023/12/16 07:06:04;;;;;;;;;4.00;4.00;;;;;8.83;86.03;101494.87;146604;574;46021;-69
2023/12/16 07:09:13;;;;;;;;;6.00;2.75;;;;;8.81;85.33;101497.31;146599;634;46016;-67
2023/12/16 07:12:21;;;;;;;;;6.00;5.50;;;;;5.13;84.64;100858.59;146609;644;46031;-66
2023/12/16 07:15:22;;;;;;;;;3.00;3.00;;;;;8.85;85.31;101522.63;146605;582;46016;-64
2023/12/16 07:18:23;;;;;;;;;7.00;6.00;;;;;8.85;84.77;101525.22;146603;622;47020;-64
2023/12/16 07:21:27;;;;;;;;;6.25;6.25;;;;;8.85;85.02;101526.88;146603;609;46017;-65
2023/12/16 07:24:31;;;;;;;;;6.00;4.75;;;;;8.84;85.31;101527.69;146605;609;47020;-68
2023/12/16 07:27:29;;;;;;;;;10.50;8.50;;;;;8.81;86.03;101543.88;146602;650;47016;-68
2023/12/16 07:30:27;;;;;;;;;5.25;5.00;;;;;8.79;86.51;101554.12;146603;574;47010;-64
2023/12/16 07:33:41;;;;;;;;;7.50;7.50;;;;;4.60;85.36;100816.13;146599;641;47016;-66
2023/12/16 07:36:52;;;;;;;;;8.00;7.00;;;;;8.82;86.75;101575.84;146602;577;47012;-64
2023/12/16 07:39:59;;;;;;;;;8.75;6.50;;;;;8.78;85.98;101579.84;146604;592;46016;-67
2023/12/16 07:43:01;;;;;;;;;2.75;2.75;;;;;8.76;85.91;101577.16;146607;587;46010;-67
2023/12/16 07:45:59;;;;;;;;;4.50;3.50;;;;;8.83;86.35;101578.50;146604;606;46917;-68
2023/12/16 07:48:51;;;;;;;;;5.75;5.75;;;;;8.87;85.76;101587.38;146606;620;46020;-67
2023/12/16 07:51:43;;;;;;;;;4.25;4.25;;;;;8.86;86.38;101576.13;146601;577;46017;-67
2023/12/16 07:54:42;;;;;;;;;5.00;4.00;;;;;8.90;85.48;101591.09;146602;617;48010;-67
2023/12/16 07:57:38;;;;;;;;;5.75;5.75;;;;;8.95;85.27;101578.50;146602;609;46016;-67
2023/12/16 08:00:40;;;;;;;;;2.00;2.00;;;;;8.96;84.68;101573.41;146605;601;46010;-67
2023/12/16 08:03:40;;;;;;;;;4.50;3.50;;;;;9.01;84.82;101581.53;146602;620;47016;-67
2023/12/16 08:06:40;;;;;;;;;5.75;4.25;;;;;9.07;84.69;101600.06;146605;583;46021;-68
2023/12/16 08:09:59;;;;;;;;;3.00;3.00;;;;;9.09;84.61;101592.41;146601;672;46016;-65
2023/12/16 08:12:53;;;;;;;;;4.75;4.50;;;;;9.10;84.79;101607.16;146610;582;46015;-63
2023/12/16 08:16:11;;;;;;;;;3.00;2.25;;;;;9.10;84.57;101620.09;146601;614;47016;-64
2023/12/16 08:19:05;;;;;;;;;4.00;2.75;;;;;9.09;84.37;101613.09;146604;676;46020;-64
2023/12/16 08:22:04;;;;;;;;;7.00;4.50;;;;;9.12;84.75;101615.91;146602;687;46017;-65
2023/12/16 08:25:09;;;;;;;;;;;;;;;;;;;;;
2023/12/16 08:28:19;;;;;;;;;3.00;3.00;;;;;9.25;83.89;101616.91;146602;662;47012;-66
2023/12/16 08:31:37;;;;;;;;;4.00;4.00;;;;;9.32;84.04;101633.75;146607;601;46014;-64
2023/12/16 08:34:33;;;;;;;;;5.75;4.25;;;;;9.46;84.37;101637.28;146594;674;47916;-65
2023/12/16 08:38:03;;;;;;;;;4.25;4.00;;;;;5.37;82.91;100903.25;146605;621;46020;-64
2023/12/16 08:41:17;;;;;;;;;6.25;4.00;;;;;9.55;82.60;101653.47;146600;606;47016;-67
2023/12/16 08:44:10;;;;;;;;;6.75;5.25;;;;;9.57;82.67;101654.50;146605;581;47020;-66
2023/12/16 08:47:10;;;;;;;;;9.00;8.25;;;;;9.59;82.22;101663.25;146602;701;46016;-66
2023/12/16 08:50:27;;;;;;;;;5.25;5.25;;;;;9.56;81.86;101655.25;146608;571;46015;-67
2023/12/16 08:53:32;;;;;;;;;9.75;6.50;;;;;9.68;81.99;101675.94;146603;620;47012;-66
2023/12/16 08:56:32;;;;;;;;;5.75;4.50;;;;;9.71;82.31;101676.16;146607;670;46020;-66
2023/12/16 08:59:32;;;;;;;;;6.25;6.00;;;;;9.71;82.38;101681.34;146607;586;46012;-66
2023/12/16 09:02:42;;;;;;;;;3.50;3.50;;;;;9.61;83.19;101702.22;146607;618;46010;-67
2023/12/16 09:05:55;;;;;;;;;4.00;4.00;;;;;9.55;82.96;101705.25;146605;587;46017;-67
2023/12/16 09:09:04;;;;;;;;;6.25;5.25;;;;;9.49;82.97;101705.72;146600;579;46020;-67
2023/12/16 09:12:10;;;;;;;;;;;;;;;;;;;;;
2023/12/16 09:15:15;;;;;;;;;;;;;;;;;;;;;
2023/12/16 09:18:34;;;;;;;;;5.75;5.75;;;;;9.49;82.64;101694.47;146604;607;46914;-67
2023/12/16 09:21:45;;;;;;;;;9.75;9.25;;;;;9.56;82.88;101680.25;146606;606;46020;-67
2023/12/16 09:24:52;;;;;;;;;6.00;6.00;;;;;9.60;82.28;101711.69;146601;564;46016;-65
2023/12/16 09:27:47;;;;;;;;;7.25;6.25;;;;;9.65;82.49;101704.22;146608;613;46010;-67
2023/12/16 09:30:50;;;;;;;;;7.00;7.00;;;;;9.72;82.68;101696.09;146605;563;46016;-68
2023/12/16 09:33:45;;;;;;;;;6.50;5.75;;;;;9.78;82.56;101693.94;146605;585;46020;-66
2023/12/16 09:36:52;;;;;;;;;6.25;6.00;;;;;9.80;82.70;101691.44;146601;565;46016;-68
2023/12/16 09:40:05;;;;;;;;;8.00;7.00;;;;;9.84;82.24;101685.69;146605;571;46010;-67
2023/12/16 09:43:17;;;;;;;;;8.25;8.00;;;;;9.91;81.82;101701.78;146605;572;46016;-67
2023/12/16 09:46:22;;;;;;;;;14.75;11.25;;;;;10.00;82.00;101700.59;146607;617;46031;-67
2023/12/16 09:49:32;;;;;;;;;5.50;5.00;;;;;5.99;80.82;100973.94;146604;575;46014;-67
2023/12/16 09:52:37;;;;;;;;;13.00;12.00;;;;;10.18;80.30;101696.66;146607;605;46031;-66
2023/12/16 09:55:34;;;;;;;;;11.00;9.75;;;;;10.21;80.45;101690.81;146604;596;46012;-68
2023/12/16 09:58:31;;;;;;;;;7.50;7.50;;;;;10.21;79.96;101704.66;146606;601;46010;-66
2023/12/16 10:01:29;;;;;;;;;7.25;7.00;;;;;10.23;80.15;101710.84;146599;626;47016;-66
2023/12/16 10:04:32;;;;;;;;;10.75;9.00;;;;;10.26;80.15;101712.75;146604;740;46021;-66
2023/12/16 10:07:28;;;;;;;;;17.50;14.50;;;;;10.28;79.45;101727.66;146604;649;47016;-68
2023/12/16 10:10:42;;;;;;;;;10.00;9.75;;;;;10.32;78.48;101733.94;146627;569;45035;-66
2023/12/16 10:14:14;;;;;;;;;4.75;4.75;;;;;6.91;77.04;101122.28;146627;620;45016;-67
2023/12/16 10:17:11;;;;;;;;;16.25;12.75;;;;;10.46;77.37;101738.37;146630;608;45010;-66
2023/12/16 10:20:13;;;;;;;;;10.25;9.50;;;;;10.49;77.23;101746.34;146624;596;45914;-67
2023/12/16 10:23:43;;;;;;;;;7.75;7.25;;;;;10.51;75.97;101760.34;146626;595;46010;-67
2023/12/16 10:26:59;;;;;;;;;42.50;36.50;;;;;10.52;75.02;101764.72;146627;601;45017;-66
2023/12/16 10:30:01;;;;;;;;;22.75;18.50;;;;;10.56;74.69;101763.22;146628;684;45020;-65
2023/12/16 10:33:03;;;;;;;;;14.25;12.25;;;;;10.56;74.79;101796.94;146628;722;45012;-64
2023/12/16 10:35:59;;;;;;;;;19.25;16.25;;;;;10.53;76.48;101792.47;146624;591;46014;-63
2023/12/16 10:39:11;;;;;;;;;21.50;19.75;;;;;10.53;77.01;101784.69;146622;604;45913;-64
2023/12/16 10:42:12;;;;;;;;;13.00;12.75;;;;;10.51;77.42;101791.44;146624;598;45021;-65
2023/12/16 10:45:22;;;;;;;;;15.00;13.50;;;;;10.47;77.46;101783.38;146627;563;45014;-65
2023/12/16 10:48:46;;;;;;;;;15.75;13.75;;;;;10.07;77.59;101759.84;146623;565;47010;-63
2023/12/16 10:52:00;;;;;;;;;10.00;10.00;;;;;10.34;76.75;101791.97;146626;651;46010;-65
2023/12/16 10:55:18;;;;;;;;;12.50;11.00;;;;;10.28;77.73;101788.94;146629;570;45037;-66
2023/12/16 10:58:53;;;;;;;;;12.25;9.00;;;;;10.23;77.83;101798.97;146627;573;45912;-65
2023/12/16 11:02:25;;;;;;;;;15.75;11.75;;;;;6.08;78.84;101082.72;146623;602;47008;-64
2023/12/16 11:05:38;;;;;;;;;10.25;9.25;;;;;10.01;79.27;101796.59;146624;654;46014;-67
2023/12/16 11:08:57;;;;;;;;;20.00;16.00;;;;;10.01;78.82;101796.59;146618;666;46020;-65
2023/12/16 11:12:01;;;;;;;;;;;;;;;;;;;;;
2023/12/16 11:15:08;;;;;;;;;13.00;10.25;;;;;10.06;77.81;101804.66;146604;736;47014;-65
2023/12/16 11:18:21;;;;;;;;;10.00;9.50;;;;;10.11;78.29;101824.03;146602;689;46017;-66
2023/12/16 11:21:25;;;;;;;;;7.50;7.00;;;;;10.14;78.20;101811.28;146606;566;46020;-65
2023/12/16 11:24:26;;;;;;;;;20.00;18.75;;;;;10.10;79.88;101807.59;146603;729;47012;-65
2023/12/16 11:27:23;;;;;;;;;17.75;14.00;;;;;10.08;80.00;101797.91;146607;579;46021;-66
2023/12/16 11:30:29;;;;;;;;;15.50;12.75;;;;;10.09;79.51;101808.41;146602;598;46016;-65
2023/12/16 11:33:24;;;;;;;;;14.25;14.00;;;;;10.17;79.48;101819.28;146607;610;45030;-64
2023/12/16 11:36:24;;;;;;;;;17.00;14.00;;;;;10.24;77.46;101830.97;146605;587;46012;-65
2023/12/16 11:39:50;;;;;;;;;9.00;9.00;;;;;10.30;76.82;101809.00;146605;601;46020;-66
2023/12/16 11:43:08;;;;;;;;;6.50;4.50;;;;;10.39;74.76;101817.44;146602;606;47016;-65
2023/12/16 11:46:09;;;;;;;;;8.75;8.75;;;;;10.48;73.45;101811.09;146602;637;46010;-65
2023/12/16 11:49:04;;;;;;;;;3.50;3.50;;;;;10.54;72.11;101824.47;146607;688;46016;-66
2023/12/16 11:51:59;;;;;;;;;4.25;4.25;;;;;10.59;72.95;101816.22;146607;581;47020;-65
2023/12/16 11:55:11;;;;;;;;;6.25;6.25;;;;;7.17;73.34;101209.25;146601;652;46017;-64
2023/12/16 11:58:05;;;;;;;;;7.75;6.75;;;;;10.74;71.83;101837.09;146606;608;46020;-65
2023/12/16 12:00:59;;;;;;;;;8.75;8.75;;;;;10.78;72.12;101839.12;146604;638;47015;-66
2023/12/16 12:04:17;;;;;;;;;4.00;4.00;;;;;10.82;72.17;101848.03;146605;570;47010;-66
2023/12/16 12:07:39;;;;;;;;;6.75;6.75;;;;;10.86;73.18;101837.03;146605;604;47012;-64
2023/12/16 12:10:40;;;;;;;;;60.50;44.25;;;;;10.91;73.75;101840.84;146625;602;45020;-65
2023/12/16 12:13:55;;;;;;;;;15.00;12.25;;;;;11.01;73.78;101844.97;146626;681;45016;-65
2023/12/16 12:17:02;;;;;;;;;34.00;29.50;;;;;11.07;72.92;101863.56;146625;611;46917;-64
2023/12/16 12:20:07;;;;;;;;;32.00;29.25;;;;;11.09;73.12;101849.88;146626;569;46014;-66
2023/12/16 12:23:06;;;;;;;;;16.00;15.25;;;;;11.14;72.62;101857.97;146624;696;45020;-65
2023/12/16 12:26:23;;;;;;;;;20.50;19.75;;;;;8.63;73.46;101405.53;146625;588;46012;-65
2023/12/16 12:29:33;;;;;;;;;;;;;;;;;;;;;
2023/12/16 12:32:34;;;;;;;;;23.00;20.75;;;;;11.07;72.37;101841.09;146626;645;45014;-65
2023/12/16 12:35:43;;;;;;;;;5.50;5.50;;;;;11.05;69.89;101865.13;146627;588;46010;-64
2023/12/16 12:38:59;;;;;;;;;19.75;16.50;;;;;11.00;68.44;101876.91;146611;596;47012;-64
2023/12/16 12:42:28;;;;;;;;;31.75;28.00;;;;;6.93;70.92;101167.12;146628;588;45014;-64
2023/12/16 12:45:55;;;;;;;;;18.00;18.00;;;;;10.93;69.18;101878.16;146623;670;46012;-65
2023/12/16 12:49:04;;;;;;;;;5.75;5.75;;;;;10.89;66.48;101886.56;146625;586;46010;-65
2023/12/16 12:51:57;;;;;;;;;13.00;13.00;;;;;10.84;65.60;101886.25;146624;573;45016;-64
2023/12/16 12:55:05;;;;;;;;;14.75;12.75;;;;;10.82;65.42;101894.72;146626;602;45021;-64
2023/12/16 12:58:24;;;;;;;;;15.75;14.75;;;;;10.79;66.46;101910.97;146625;617;45016;-65
2023/12/16 13:02:02;;;;;;;;;7.75;7.00;;;;;6.72;68.28;101205.97;146629;723;46010;-65
2023/12/16 13:05:14;;;;;;;;;10.75;9.25;;;;;6.88;69.29;101235.47;146627;641;45912;-66
2023/12/16 13:08:19;;;;;;;;;2.25;2.25;;;;;10.88;69.00;101933.16;146623;627;45030;-65
2023/12/16 13:11:17;;;;;;;;;33.00;28.00;;;;;10.89;70.45;101928.06;146603;636;47014;-65
2023/12/16 13:14:15;;;;;;;;;9.50;9.50;;;;;10.89;69.76;101929.78;146609;593;45020;-66
2023/12/16 13:17:22;;;;;;;;;15.50;14.25;;;;;10.89;69.37;101925.47;146603;667;46016;-65
2023/12/16 13:20:38;;;;;;;;;28.00;24.50;;;;;10.90;69.53;101932.44;146603;569;46010;-66
2023/12/16 13:23:37;;;;;;;;;16.25;14.25;;;;;10.84;68.31;101932.03;146590;580;49916;-64
2023/12/16 13:26:42;;;;;;;;;22.50;18.25;;;;;10.84;68.87;101930.38;146605;597;46010;-67
2023/12/16 13:29:48;;;;;;;;;57.75;44.00;;;;;10.84;68.11;101945.00;146597;571;47017;-65
2023/12/16 13:32:48;;;;;;;;;38.00;33.25;;;;;10.80;68.98;101949.09;146604;584;47021;-65
2023/12/16 13:35:41;;;;;;;;;39.25;33.00;;;;;10.72;69.02;101946.78;146603;584;46012;-66
2023/12/16 13:38:56;;;;;;;;;30.00;27.00;;;;;6.64;69.98;101250.03;146602;569;46021;-65
2023/12/16 13:41:50;;;;;;;;;0.25;0.25;;;;;10.61;70.06;101959.88;146602;580;47012;-64
2023/12/16 13:44:59;;;;;;;;;39.25;33.75;;;;;10.61;70.36;101978.03;146597;574;48010;-64
2023/12/16 13:47:54;;;;;;;;;12.00;10.50;;;;;10.59;70.28;101995.19;146606;570;47012;-65
2023/12/16 13:51:19;;;;;;;;;16.25;14.00;;;;;10.60;71.43;102002.16;146600;597;46020;-66
2023/12/16 13:54:17;;;;;;;;;2.50;2.25;;;;;10.61;71.84;102008.25;146599;655;47017;-64
2023/12/16 13:57:19;;;;;;;;;4.00;2.25;;;;;10.62;72.63;102012.63;146608;608;46010;-67
2023/12/16 14:00:36;;;;;;;;;5.25;4.75;;;;;10.59;73.50;102017.59;146604;622;46016;-66
2023/12/16 14:03:40;;;;;;;;;2.25;2.00;;;;;10.56;73.91;102019.97;146603;623;46020;-65
2023/12/16 14:06:33;;;;;;;;;4.00;3.00;;;;;10.54;74.22;102031.94;146599;685;47014;-64
2023/12/16 14:09:40;;;;;;;;;6.00;4.75;;;;;10.54;75.47;102035.44;146605;667;47010;-64
2023/12/16 14:12:40;;;;;;;;;18.00;15.25;;;;;10.56;75.87;102043.31;146602;583;47012;-65
2023/12/16 14:15:35;;;;;;;;;35.25;31.25;;;;;10.55;76.26;102044.13;146604;656;46021;-64
2023/12/16 14:18:31;;;;;;;;;36.00;32.00;;;;;10.55;76.62;102051.91;146600;612;47016;-67
2023/12/16 14:21:29;;;;;;;;;43.25;34.75;;;;;10.55;77.12;102052.78;146600;592;46020;-65
2023/12/16 14:24:35;;;;;;;;;48.75;39.75;;;;;10.55;77.24;102063.16;146602;608;47012;-65
2023/12/16 14:27:27;;;;;;;;;31.25;27.50;;;;;10.52;77.75;102067.25;146605;600;46010;-65
2023/12/16 14:30:23;;;;;;;;;46.50;38.00;;;;;10.40;77.62;102068.16;146602;581;46016;-65
2023/12/16 14:33:27;;;;;;;;;96.33;82.67;;;;;10.29;77.75;102069.06;146607;636;46020;-65